East Olympia, Washington
Current Conditions -  °F | °C
As of 1:54 AM on Wednesday 26 Nov 2014 (Local Time) from KOLM Reporting Station
Light Rain Light Rain  
Wind Chill: 13°   Ceiling: 2800
Heat Index: 13°   Visibility: 8mi
Dew Point: 12°   Wind: 12mph
Humidity: 96%   Direction: 190°S
Pressure: 30.2"   Gusts: NA
Location:  46.97°N, 122.84°W
Report Text: KOLM 260954Z AUTO 19010KT 8SM -RA FEW007 SCT022 OVC028 13/12 A3020 RMK AO2 RAB0858 SLP227 P0002 T01280122
Loading
Personal Weather Stations






























Interactive Weather Map New forecast layout! Learn more

10-Day Weather Forecast

Advertisements
Track Severe Weather on mobile